Time;durP1;ratioP1;P1;durP2;ratioP2;P2;SDS_P1;SDS_P2;PMS_P1;PMS_P2;Temp;Humidity;BMP_temperature;BMP_pressure;BME280_temperature;BME280_humidity;BME280_pressure;Samples;Min_cycle;Max_cycle;Signal;HPM_P1;HPM_P2
2023/12/30 00:01:45;;;;;;;10.50;3.03;;;;;;;;;;5020394;28;20045;-64
2023/12/30 00:04:12;;;;;;;4.63;2.20;;;;;;;;;;5019540;28;20093;-64
2023/12/30 00:06:38;;;;;;;9.48;3.20;;;;;;;;;;5024885;28;20033;-64
2023/12/30 00:09:04;;;;;;;2.25;1.95;;;;;;;;;;5024551;28;20035;-64
2023/12/30 00:11:31;;;;;;;3.67;1.77;;;;;;;;;;5021176;28;20112;-64
2023/12/30 00:13:57;;;;;;;4.43;2.10;;;;;;;;;;5017348;28;20216;-64
2023/12/30 00:16:23;;;;;;;4.55;1.83;;;;;;;;;;5016756;28;20509;-64
2023/12/30 00:18:50;;;;;;;10.20;3.13;;;;;;;;;;5020284;28;20090;-64
2023/12/30 00:21:19;;;;;;;2.25;2.15;;;;;;;;;;5016590;28;20619;-64
2023/12/30 00:23:46;;;;;;;3.90;2.10;;;;;;;;;;5019944;28;20567;-65
2023/12/30 00:26:22;;;;;;;2.58;2.47;;;;;;;;;;5025758;28;20661;-64
2023/12/30 00:28:49;;;;;;;2.20;2.00;;;;;;;;;;5022725;28;20093;-64
2023/12/30 00:31:22;;;;;;;3.22;2.80;;;;;;;;;;5033151;28;20512;-66
2023/12/30 00:33:49;;;;;;;5.55;3.35;;;;;;;;;;5042899;28;20033;-64
2023/12/30 00:36:15;;;;;;;5.38;3.35;;;;;;;;;;5022106;28;20033;-64
2023/12/30 00:38:41;;;;;;;2.55;2.35;;;;;;;;;;5027485;28;20029;-64
2023/12/30 00:41:13;;;;;;;4.68;3.10;;;;;;;;;;5022151;28;20716;-64
2023/12/30 00:43:39;;;;;;;5.25;2.40;;;;;;;;;;5033144;28;20128;-65
2023/12/30 00:46:06;;;;;;;3.30;1.70;;;;;;;;;;5022096;28;20040;-64
2023/12/30 00:48:32;;;;;;;6.20;1.92;;;;;;;;;;5024968;28;20037;-64
2023/12/30 00:51:01;;;;;;;1.60;1.50;;;;;;;;;;5015630;28;20786;-64
2023/12/30 00:53:27;;;;;;;5.85;2.22;;;;;;;;;;5047773;28;20447;-64
2023/12/30 00:55:56;;;;;;;5.47;2.50;;;;;;;;;;5022236;28;20037;-64
2023/12/30 00:58:23;;;;;;;8.02;2.28;;;;;;;;;;5023499;28;20041;-64
2023/12/30 01:00:49;;;;;;;2.38;1.90;;;;;;;;;;5023486;28;20109;-64
2023/12/30 01:03:16;;;;;;;5.95;1.90;;;;;;;;;;5021776;28;20037;-65
2023/12/30 01:05:42;;;;;;;1.48;1.38;;;;;;;;;;5018933;28;20052;-64
2023/12/30 01:08:08;;;;;;;5.63;1.98;;;;;;;;;;5021889;28;20461;-64
2023/12/30 01:10:34;;;;;;;2.67;2.45;;;;;;;;;;5014588;28;20026;-65
2023/12/30 01:13:00;;;;;;;5.05;1.60;;;;;;;;;;5023526;28;20032;-65
2023/12/30 01:15:27;;;;;;;1.98;1.52;;;;;;;;;;5018996;28;20034;-64
2023/12/30 01:17:53;;;;;;;6.70;1.80;;;;;;;;;;5025586;28;20025;-64
2023/12/30 01:20:19;;;;;;;5.22;2.05;;;;;;;;;;5017248;28;20068;-65
2023/12/30 01:22:46;;;;;;;2.17;1.98;;;;;;;;;;5020896;28;20022;-65
2023/12/30 01:25:12;;;;;;;4.32;2.25;;;;;;;;;;5017468;28;20026;-65
2023/12/30 01:27:38;;;;;;;2.72;1.58;;;;;;;;;;5025390;28;20108;-65
2023/12/30 01:30:04;;;;;;;1.60;1.50;;;;;;;;;;5023373;28;20313;-65
2023/12/30 01:32:31;;;;;;;5.95;1.75;;;;;;;;;;5019334;28;20030;-65
2023/12/30 01:34:57;;;;;;;3.47;1.95;;;;;;;;;;5018621;28;20032;-65
2023/12/30 01:37:24;;;;;;;4.20;1.73;;;;;;;;;;5021277;28;20558;-65
2023/12/30 01:39:50;;;;;;;1.77;1.65;;;;;;;;;;5015927;28;20695;-65
2023/12/30 01:42:16;;;;;;;8.65;1.88;;;;;;;;;;5017232;28;20030;-65
2023/12/30 01:44:42;;;;;;;2.47;2.28;;;;;;;;;;5013654;28;20030;-64
2023/12/30 01:47:09;;;;;;;1.67;1.48;;;;;;;;;;5023031;28;20184;-64
2023/12/30 01:49:35;;;;;;;5.55;2.17;;;;;;;;;;5011142;28;20551;-68
2023/12/30 01:52:03;;;;;;;8.40;3.60;;;;;;;;;;5020530;28;20030;-64
2023/12/30 01:54:30;;;;;;;20.67;5.80;;;;;;;;;;5015870;28;20037;-65
2023/12/30 01:56:58;;;;;;;6.45;5.03;;;;;;;;;;5014782;28;20402;-65
2023/12/30 01:59:25;;;;;;;10.20;5.10;;;;;;;;;;5014601;28;20058;-65
2023/12/30 02:01:51;;;;;;;7.55;4.25;;;;;;;;;;5017750;28;20034;-65
2023/12/30 02:04:18;;;;;;;10.18;3.65;;;;;;;;;;5020065;28;20033;-64
2023/12/30 02:06:44;;;;;;;3.92;2.03;;;;;;;;;;5027302;28;20041;-64
2023/12/30 02:09:10;;;;;;;2.65;2.05;;;;;;;;;;5011521;28;20105;-65
2023/12/30 02:11:37;;;;;;;5.53;2.00;;;;;;;;;;5021086;28;20029;-65
2023/12/30 02:14:03;;;;;;;7.22;1.95;;;;;;;;;;5022383;28;20449;-64
2023/12/30 02:16:30;;;;;;;1.77;1.67;;;;;;;;;;5022620;28;20357;-70
2023/12/30 02:19:00;;;;;;;3.55;3.22;;;;;;;;;;5024294;28;20038;-64
2023/12/30 02:21:26;;;;;;;5.10;2.65;;;;;;;;;;5011948;28;20041;-65
2023/12/30 02:23:56;;;;;;;3.28;2.50;;;;;;;;;;5016424;28;20552;-64
2023/12/30 02:26:24;;;;;;;8.70;3.88;;;;;;;;;;5021105;28;20047;-64
2023/12/30 02:28:50;;;;;;;10.95;3.35;;;;;;;;;;5015451;28;20034;-65
2023/12/30 02:31:16;;;;;;;7.65;2.97;;;;;;;;;;5023188;28;20042;-65
2023/12/30 02:33:43;;;;;;;2.67;2.45;;;;;;;;;;5015930;28;20138;-64
2023/12/30 02:36:09;;;;;;;4.18;1.80;;;;;;;;;;5016949;28;20513;-65
2023/12/30 02:38:35;;;;;;;2.83;2.53;;;;;;;;;;5018947;28;20120;-65
2023/12/30 02:41:02;;;;;;;2.08;1.88;;;;;;;;;;5014560;28;20045;-66
2023/12/30 02:43:28;;;;;;;1.30;1.30;;;;;;;;;;5018089;28;20202;-66
2023/12/30 02:45:55;;;;;;;3.00;1.98;;;;;;;;;;5011100;28;20053;-65
2023/12/30 02:48:21;;;;;;;1.10;1.10;;;;;;;;;;5019949;28;20519;-65
2023/12/30 02:50:48;;;;;;;10.57;1.40;;;;;;;;;;5011604;28;20025;-65
2023/12/30 02:53:14;;;;;;;1.40;1.30;;;;;;;;;;5013570;28;20079;-65
2023/12/30 02:55:40;;;;;;;3.90;1.50;;;;;;;;;;5016845;28;20105;-65
2023/12/30 02:58:06;;;;;;;1.27;1.13;;;;;;;;;;5017529;28;20148;-65
2023/12/30 03:00:32;;;;;;;1.33;1.20;;;;;;;;;;5017203;28;20381;-65
2023/12/30 03:02:59;;;;;;;1.15;1.13;;;;;;;;;;5012365;28;20037;-65
2023/12/30 03:05:27;;;;;;;1.80;1.10;;;;;;;;;;5018520;28;20052;-65
2023/12/30 03:07:57;;;;;;;1.10;1.10;;;;;;;;;;5017059;28;20485;-66
2023/12/30 03:10:25;;;;;;;4.22;1.42;;;;;;;;;;5015712;28;20064;-66
2023/12/30 03:12:53;;;;;;;7.63;2.05;;;;;;;;;;5014683;28;20572;-65
2023/12/30 03:15:20;;;;;;;1.35;1.35;;;;;;;;;;5018047;28;20030;-65
2023/12/30 03:17:46;;;;;;;1.33;1.20;;;;;;;;;;5038155;28;20072;-65
2023/12/30 03:20:13;;;;;;;3.92;1.58;;;;;;;;;;5021370;28;20041;-65
2023/12/30 03:22:39;;;;;;;4.55;1.73;;;;;;;;;;5018977;28;20036;-66
2023/12/30 03:25:06;;;;;;;1.17;1.17;;;;;;;;;;5016899;28;20021;-66
2023/12/30 03:27:32;;;;;;;1.42;1.42;;;;;;;;;;5015593;28;20032;-66
2023/12/30 03:29:59;;;;;;;2.42;2.33;;;;;;;;;;5015304;28;20109;-64
2023/12/30 03:32:26;;;;;;;0.75;0.75;;;;;;;;;;5013132;28;20026;-64
2023/12/30 03:34:52;;;;;;;1.88;1.48;;;;;;;;;;5011161;28;20034;-65
2023/12/30 03:37:18;;;;;;;1.00;1.00;;;;;;;;;;5015449;28;20022;-64
2023/12/30 03:39:47;;;;;;;1.10;1.10;;;;;;;;;;5015016;28;20087;-66
2023/12/30 03:42:35;;;;;;;1.00;1.00;;;;;;;;;;5020148;28;20116;-66
2023/12/30 03:45:01;;;;;;;1.20;1.20;;;;;;;;;;5016104;28;20038;-65
2023/12/30 03:47:30;;;;;;;1.02;1.02;;;;;;;;;;5013734;28;20111;-65
2023/12/30 03:49:56;;;;;;;2.78;1.45;;;;;;;;;;5020673;28;20069;-65
2023/12/30 03:52:23;;;;;;;6.32;1.20;;;;;;;;;;5018204;28;20041;-65
2023/12/30 03:54:49;;;;;;;1.13;1.13;;;;;;;;;;5020957;28;20018;-65
2023/12/30 03:57:15;;;;;;;1.40;1.38;;;;;;;;;;5023041;28;20325;-64
2023/12/30 03:59:41;;;;;;;1.38;1.27;;;;;;;;;;5024641;28;20116;-65
2023/12/30 04:02:08;;;;;;;1.10;1.10;;;;;;;;;;5016635;28;20480;-65
2023/12/30 04:04:35;;;;;;;2.10;1.63;;;;;;;;;;5022071;28;20409;-64
2023/12/30 04:07:01;;;;;;;1.08;1.08;;;;;;;;;;5024462;28;20025;-64
2023/12/30 04:09:27;;;;;;;1.10;1.10;;;;;;;;;;5021125;28;20036;-64
2023/12/30 04:11:53;;;;;;;1.17;1.13;;;;;;;;;;5012664;28;20649;-64
2023/12/30 04:14:20;;;;;;;2.47;1.40;;;;;;;;;;5024275;28;20507;-71
2023/12/30 04:16:46;;;;;;;2.00;1.85;;;;;;;;;;5015997;28;20030;-66
2023/12/30 04:19:13;;;;;;;3.53;2.70;;;;;;;;;;5021789;28;20036;-65
2023/12/30 04:21:39;;;;;;;1.92;1.83;;;;;;;;;;5019608;28;20044;-70
2023/12/30 04:24:06;;;;;;;2.22;1.77;;;;;;;;;;5024879;28;20075;-64
2023/12/30 04:26:32;;;;;;;2.80;1.88;;;;;;;;;;5022331;28;20056;-64
2023/12/30 04:28:59;;;;;;;1.33;1.25;;;;;;;;;;5014855;28;20034;-65
2023/12/30 04:31:25;;;;;;;1.02;1.02;;;;;;;;;;5018528;28;20022;-64
2023/12/30 04:33:54;;;;;;;2.70;2.40;;;;;;;;;;5018289;28;20077;-65
2023/12/30 04:36:25;;;;;;;1.35;1.25;;;;;;;;;;5020454;28;20026;-65
2023/12/30 04:38:51;;;;;;;8.00;3.00;;;;;;;;;;5024433;28;20369;-65
2023/12/30 04:41:18;;;;;;;3.25;2.25;;;;;;;;;;5022590;28;20029;-65
2023/12/30 04:43:44;;;;;;;8.30;3.17;;;;;;;;;;5018352;28;20060;-65
2023/12/30 04:46:14;;;;;;;4.05;2.08;;;;;;;;;;5007199;28;20030;-65
2023/12/30 04:48:40;;;;;;;2.60;1.70;;;;;;;;;;5015485;28;20090;-65
2023/12/30 04:51:06;;;;;;;2.10;1.92;;;;;;;;;;5010240;28;20033;-65
2023/12/30 04:53:33;;;;;;;1.50;1.48;;;;;;;;;;5019672;28;20038;-66
2023/12/30 04:55:59;;;;;;;1.77;1.65;;;;;;;;;;5022640;28;20033;-65
2023/12/30 04:58:25;;;;;;;2.40;2.00;;;;;;;;;;5015914;28;20041;-66
2023/12/30 05:00:54;;;;;;;1.45;1.35;;;;;;;;;;5020840;28;20512;-66
2023/12/30 05:03:21;;;;;;;2.42;1.90;;;;;;;;;;5022732;28;20501;-65
2023/12/30 05:05:47;;;;;;;2.95;2.50;;;;;;;;;;5024035;28;20029;-65
2023/12/30 05:08:13;;;;;;;2.28;2.08;;;;;;;;;;5025425;28;20029;-66
2023/12/30 05:10:39;;;;;;;1.50;1.33;;;;;;;;;;5018823;28;20022;-66
2023/12/30 05:13:06;;;;;;;2.47;2.05;;;;;;;;;;5019857;28;20556;-66
2023/12/30 05:15:32;;;;;;;2.00;1.90;;;;;;;;;;5019448;28;20126;-66
2023/12/30 05:17:58;;;;;;;2.20;2.00;;;;;;;;;;5022898;28;20551;-66
2023/12/30 05:20:26;;;;;;;1.50;1.40;;;;;;;;;;5022984;28;20026;-66
2023/12/30 05:22:53;;;;;;;1.75;1.42;;;;;;;;;;5022076;28;20105;-66
2023/12/30 05:25:19;;;;;;;1.63;1.52;;;;;;;;;;5017797;28;20713;-67
2023/12/30 05:27:45;;;;;;;2.92;1.63;;;;;;;;;;5016082;28;20037;-67
2023/12/30 05:30:12;;;;;;;1.45;1.35;;;;;;;;;;5016379;28;20037;-66
2023/12/30 05:32:38;;;;;;;2.50;1.40;;;;;;;;;;5015967;28;20401;-66
2023/12/30 05:35:05;;;;;;;5.85;1.67;;;;;;;;;;5020846;28;20050;-67
2023/12/30 05:37:31;;;;;;;2.20;1.33;;;;;;;;;;5019728;28;20032;-66
2023/12/30 05:39:58;;;;;;;2.05;1.60;;;;;;;;;;5014464;28;20196;-66
2023/12/30 05:42:33;;;;;;;1.15;1.15;;;;;;;;;;5015090;28;20065;-66
2023/12/30 05:44:59;;;;;;;1.20;1.20;;;;;;;;;;5033947;28;20028;-66
2023/12/30 05:47:25;;;;;;;3.92;1.45;;;;;;;;;;5015180;28;20048;-66
2023/12/30 05:49:52;;;;;;;1.00;1.00;;;;;;;;;;5017834;28;20041;-66
2023/12/30 05:52:18;;;;;;;2.22;1.90;;;;;;;;;;5018466;28;20025;-67
2023/12/30 05:54:47;;;;;;;1.02;1.02;;;;;;;;;;5018935;28;20033;-66
2023/12/30 05:57:14;;;;;;;2.72;1.20;;;;;;;;;;5014709;28;20036;-67
2023/12/30 05:59:41;;;;;;;1.02;1.02;;;;;;;;;;5035002;28;20056;-64
2023/12/30 06:02:08;;;;;;;1.17;1.17;;;;;;;;;;5015066;28;20086;-66
2023/12/30 06:04:41;;;;;;;0.82;0.82;;;;;;;;;;5015588;28;20132;-67
2023/12/30 06:07:08;;;;;;;1.10;1.10;;;;;;;;;;5021742;28;20516;-66
2023/12/30 06:09:34;;;;;;;1.00;1.00;;;;;;;;;;5023522;28;20451;-65
2023/12/30 06:12:00;;;;;;;1.25;1.25;;;;;;;;;;5015354;28;20033;-67
2023/12/30 06:14:26;;;;;;;1.10;1.10;;;;;;;;;;5019027;28;20065;-66
2023/12/30 06:16:52;;;;;;;0.85;0.85;;;;;;;;;;5020625;28;20126;-65
2023/12/30 06:19:19;;;;;;;1.05;1.05;;;;;;;;;;5022063;28;20033;-66
2023/12/30 06:21:45;;;;;;;1.00;1.00;;;;;;;;;;5017140;28;20103;-66
2023/12/30 06:24:11;;;;;;;0.90;0.90;;;;;;;;;;5012265;28;20465;-66
2023/12/30 06:26:38;;;;;;;0.82;0.82;;;;;;;;;;5017158;28;20424;-66
2023/12/30 06:29:05;;;;;;;1.45;1.08;;;;;;;;;;5023339;28;20030;-65
2023/12/30 06:31:31;;;;;;;1.00;1.00;;;;;;;;;;5019084;28;20022;-65
2023/12/30 06:33:58;;;;;;;3.45;0.90;;;;;;;;;;5020153;28;20364;-67
2023/12/30 06:36:24;;;;;;;1.00;1.00;;;;;;;;;;5017808;28;20114;-66
2023/12/30 06:38:51;;;;;;;0.80;0.80;;;;;;;;;;5025004;28;20508;-65
2023/12/30 06:41:20;;;;;;;3.92;0.90;;;;;;;;;;5018142;28;20041;-66
2023/12/30 06:43:47;;;;;;;0.90;0.90;;;;;;;;;;5021276;28;20041;-67
2023/12/30 06:46:13;;;;;;;0.98;0.98;;;;;;;;;;5021878;28;20367;-67
2023/12/30 06:48:39;;;;;;;1.13;1.02;;;;;;;;;;5019086;28;20388;-69
2023/12/30 06:51:10;;;;;;;1.17;1.17;;;;;;;;;;5022812;28;20080;-66
2023/12/30 06:53:36;;;;;;;0.90;0.90;;;;;;;;;;5021389;28;20112;-67
2023/12/30 06:56:03;;;;;;;2.15;0.93;;;;;;;;;;5026424;28;20497;-67
2023/12/30 06:58:29;;;;;;;1.35;1.25;;;;;;;;;;5018433;28;20394;-65
2023/12/30 07:00:56;;;;;;;0.93;0.93;;;;;;;;;;5022525;28;20489;-67
2023/12/30 07:03:23;;;;;;;1.27;1.27;;;;;;;;;;5015972;28;20034;-66
2023/12/30 07:05:49;;;;;;;1.30;1.30;;;;;;;;;;5023285;28;20121;-65
2023/12/30 07:08:16;;;;;;;1.40;1.40;;;;;;;;;;5017060;28;20033;-66
2023/12/30 07:10:42;;;;;;;1.85;1.67;;;;;;;;;;5019972;28;20807;-65
2023/12/30 07:13:09;;;;;;;2.55;1.77;;;;;;;;;;5018915;28;20036;-67
2023/12/30 07:15:35;;;;;;;3.83;1.88;;;;;;;;;;5008155;28;20036;-66
2023/12/30 07:18:02;;;;;;;1.75;1.60;;;;;;;;;;5016080;28;20357;-66
2023/12/30 07:20:28;;;;;;;4.72;1.70;;;;;;;;;;5015795;28;20179;-66
2023/12/30 07:22:54;;;;;;;2.67;1.45;;;;;;;;;;5015680;28;20025;-66
2023/12/30 07:25:20;;;;;;;1.38;1.17;;;;;;;;;;5016241;28;20118;-67
2023/12/30 07:27:47;;;;;;;1.00;1.00;;;;;;;;;;5014380;28;20030;-67
2023/12/30 07:30:13;;;;;;;1.73;1.23;;;;;;;;;;5020164;28;20028;-67
2023/12/30 07:32:39;;;;;;;2.97;1.20;;;;;;;;;;5024515;28;20374;-67
2023/12/30 07:35:06;;;;;;;2.05;1.40;;;;;;;;;;5016879;28;20029;-67
2023/12/30 07:37:33;;;;;;;1.08;1.08;;;;;;;;;;5023404;28;20413;-68
2023/12/30 07:40:01;;;;;;;3.30;1.35;;;;;;;;;;5025031;28;20496;-68
2023/12/30 07:42:29;;;;;;;1.10;1.10;;;;;;;;;;5054664;28;20087;-67
2023/12/30 07:44:56;;;;;;;1.08;1.08;;;;;;;;;;5025187;28;20017;-68
2023/12/30 07:47:22;;;;;;;5.68;1.70;;;;;;;;;;5013098;28;20116;-68
2023/12/30 07:49:48;;;;;;;1.20;1.20;;;;;;;;;;5018687;28;20117;-68
2023/12/30 07:52:17;;;;;;;2.75;1.30;;;;;;;;;;5013950;28;20029;-67
2023/12/30 07:54:43;;;;;;;1.05;1.05;;;;;;;;;;5016853;28;20052;-68
2023/12/30 07:57:10;;;;;;;1.27;1.17;;;;;;;;;;5023266;28;20029;-67
2023/12/30 07:59:36;;;;;;;2.28;1.70;;;;;;;;;;5022810;28;20444;-69
2023/12/30 08:02:03;;;;;;;6.82;1.67;;;;;;;;;;5021185;28;20033;-67
2023/12/30 08:04:29;;;;;;;1.38;1.38;;;;;;;;;;5011915;28;20032;-67
2023/12/30 08:06:56;;;;;;;5.93;1.42;;;;;;;;;;5011977;28;20068;-67
2023/12/30 08:09:24;;;;;;;3.75;1.30;;;;;;;;;;5028612;28;20176;-68
2023/12/30 08:11:51;;;;;;;1.00;1.00;;;;;;;;;;5021495;28;20030;-67
2023/12/30 08:14:17;;;;;;;1.58;1.10;;;;;;;;;;5020411;28;20044;-71
2023/12/30 08:16:44;;;;;;;2.92;1.27;;;;;;;;;;5023176;28;20101;-68
2023/12/30 08:19:11;;;;;;;2.72;1.13;;;;;;;;;;5021590;28;20497;-68
2023/12/30 08:21:37;;;;;;;2.50;1.42;;;;;;;;;;5019149;28;20053;-69
2023/12/30 08:24:06;;;;;;;1.65;1.35;;;;;;;;;;5023768;28;20034;-68
2023/12/30 08:26:32;;;;;;;1.35;1.17;;;;;;;;;;5019278;28;20028;-70
2023/12/30 08:28:59;;;;;;;1.52;1.38;;;;;;;;;;5023823;28;20032;-68
2023/12/30 08:31:25;;;;;;;4.65;2.10;;;;;;;;;;5019976;28;20021;-68
2023/12/30 08:33:51;;;;;;;1.50;1.40;;;;;;;;;;5010249;28;20496;-69
2023/12/30 08:36:18;;;;;;;4.15;1.77;;;;;;;;;;5016466;28;20033;-69
2023/12/30 08:38:44;;;;;;;1.92;1.50;;;;;;;;;;5019808;28;20033;-68
2023/12/30 08:41:14;;;;;;;3.92;1.27;;;;;;;;;;5022603;28;20065;-68
2023/12/30 08:43:44;;;;;;;1.90;1.52;;;;;;;;;;5023364;28;20489;-67
2023/12/30 08:46:10;;;;;;;1.98;1.45;;;;;;;;;;5018160;28;20040;-67
2023/12/30 08:48:37;;;;;;;1.60;1.50;;;;;;;;;;5015285;28;20030;-68
2023/12/30 08:51:03;;;;;;;1.60;1.30;;;;;;;;;;5025408;28;20032;-67
2023/12/30 08:53:29;;;;;;;1.17;1.17;;;;;;;;;;5018344;28;20033;-67
2023/12/30 08:55:56;;;;;;;1.52;1.42;;;;;;;;;;5024235;28;20509;-66
2023/12/30 08:58:24;;;;;;;1.70;1.52;;;;;;;;;;5020929;28;20511;-67
2023/12/30 09:00:50;;;;;;;1.20;1.20;;;;;;;;;;5021193;28;20136;-69
2023/12/30 09:03:16;;;;;;;5.93;1.40;;;;;;;;;;5019246;28;20041;-68
2023/12/30 09:05:43;;;;;;;4.80;1.25;;;;;;;;;;5020480;28;20772;-68
2023/12/30 09:08:09;;;;;;;2.28;1.25;;;;;;;;;;5020117;28;20029;-68
2023/12/30 09:10:36;;;;;;;1.50;1.45;;;;;;;;;;5016777;28;20052;-67
2023/12/30 09:13:03;;;;;;;1.20;1.20;;;;;;;;;;5018959;28;20036;-67
2023/12/30 09:15:29;;;;;;;8.18;2.17;;;;;;;;;;5008339;28;20351;-68
2023/12/30 09:17:57;;;;;;;1.63;1.27;;;;;;;;;;5016404;28;20339;-68
2023/12/30 09:20:24;;;;;;;1.20;1.20;;;;;;;;;;5014385;28;20257;-67
2023/12/30 09:22:50;;;;;;;2.30;1.67;;;;;;;;;;5017273;28;20605;-67
2023/12/30 09:25:16;;;;;;;3.30;1.20;;;;;;;;;;5019965;28;20060;-67
2023/12/30 09:27:43;;;;;;;1.65;1.23;;;;;;;;;;5017848;28;20109;-67
2023/12/30 09:30:12;;;;;;;1.17;1.15;;;;;;;;;;5018192;28;20025;-67
2023/12/30 09:32:38;;;;;;;1.40;1.35;;;;;;;;;;5018832;28;20037;-66
2023/12/30 09:35:05;;;;;;;1.17;1.15;;;;;;;;;;5015312;28;20100;-67
2023/12/30 09:37:31;;;;;;;1.13;1.13;;;;;;;;;;5019897;28;20407;-66
2023/12/30 09:39:57;;;;;;;1.20;1.20;;;;;;;;;;5019805;28;20029;-66
2023/12/30 09:42:23;;;;;;;3.75;1.60;;;;;;;;;;5022050;28;20033;-66
2023/12/30 09:44:51;;;;;;;2.00;1.27;;;;;;;;;;5018716;28;20025;-66
2023/12/30 09:47:18;;;;;;;2.65;1.30;;;;;;;;;;5016985;28;20032;-66
2023/12/30 09:49:44;;;;;;;11.23;3.08;;;;;;;;;;5033115;28;20029;-66
2023/12/30 09:52:11;;;;;;;5.28;1.70;;;;;;;;;;5017738;28;20544;-65
2023/12/30 09:54:39;;;;;;;4.65;2.03;;;;;;;;;;5018139;28;20068;-65
2023/12/30 09:57:06;;;;;;;6.43;2.35;;;;;;;;;;5015686;28;20524;-65
2023/12/30 09:59:37;;;;;;;7.15;2.63;;;;;;;;;;5018538;28;20583;-65
2023/12/30 10:02:06;;;;;;;6.90;2.17;;;;;;;;;;5016896;28;20564;-65
2023/12/30 10:04:32;;;;;;;5.32;1.80;;;;;;;;;;5020082;28;20037;-65
2023/12/30 10:06:59;;;;;;;7.60;2.60;;;;;;;;;;5018812;28;20033;-66
2023/12/30 10:09:25;;;;;;;8.63;2.42;;;;;;;;;;5019090;28;20021;-66
2023/12/30 10:11:51;;;;;;;10.45;2.13;;;;;;;;;;5018641;28;20045;-65
2023/12/30 10:14:17;;;;;;;6.82;2.33;;;;;;;;;;5016035;28;20030;-66
2023/12/30 10:16:44;;;;;;;9.40;2.67;;;;;;;;;;5016646;28;20029;-66
2023/12/30 10:19:10;;;;;;;3.45;1.95;;;;;;;;;;5019964;28;20029;-67
2023/12/30 10:21:40;;;;;;;6.20;2.05;;;;;;;;;;5019046;28;20805;-65
2023/12/30 10:24:07;;;;;;;3.50;2.13;;;;;;;;;;5016730;28;20037;-66
2023/12/30 10:26:36;;;;;;;3.92;2.45;;;;;;;;;;5016392;28;20030;-66
2023/12/30 10:29:03;;;;;;;3.30;1.92;;;;;;;;;;5019718;28;20136;-66
2023/12/30 10:31:30;;;;;;;2.03;1.90;;;;;;;;;;5018334;28;20039;-66
2023/12/30 10:33:56;;;;;;;1.88;1.77;;;;;;;;;;5018967;28;20018;-66
2023/12/30 10:36:23;;;;;;;2.30;2.00;;;;;;;;;;5017655;28;20396;-66
2023/12/30 10:38:49;;;;;;;1.27;1.23;;;;;;;;;;5021948;28;20026;-66
2023/12/30 10:41:16;;;;;;;1.40;1.30;;;;;;;;;;5017571;28;20037;-66
2023/12/30 10:43:42;;;;;;;1.30;1.30;;;;;;;;;;5022688;28;20268;-66
2023/12/30 10:46:11;;;;;;;1.40;1.30;;;;;;;;;;5016528;28;20037;-66
2023/12/30 10:48:52;;;;;;;1.30;1.20;;;;;;;;;;5020703;28;20017;-66
2023/12/30 10:51:26;;;;;;;2.25;1.23;;;;;;;;;;5036930;28;20053;-66
2023/12/30 10:54:02;;;;;;;1.63;1.52;;;;;;;;;;5015951;28;20047;-65
2023/12/30 10:56:28;;;;;;;;;;;;;;;;;;5017165;28;20029;-66
2023/12/30 10:58:57;;;;;;;;;;;;;;;;;;5043932;28;20100;-65
2023/12/30 11:01:24;;;;;;;1.15;1.15;;;;;;;;;;5019737;28;20404;-65
2023/12/30 11:03:50;;;;;;;1.42;1.38;;;;;;;;;;5015297;28;20037;-66
2023/12/30 11:06:37;;;;;;;1.40;1.30;;;;;;;;;;5025154;28;20025;-66
2023/12/30 11:09:08;;;;;;;2.65;2.42;;;;;;;;;;5022108;28;20030;-66
2023/12/30 11:11:35;;;;;;;2.70;2.35;;;;;;;;;;5026078;28;20025;-65
2023/12/30 11:14:10;;;;;;;6.05;2.75;;;;;;;;;;5025804;28;20025;-65
2023/12/30 11:16:37;;;;;;;;;;;;;;;;;;5040303;28;20044;-65
2023/12/30 11:19:04;;;;;;;;;;;;;;;;;;5025213;28;20390;-65
2023/12/30 11:21:43;;;;;;;9.27;3.15;;;;;;;;;;5019193;28;19914;-66
2023/12/30 11:24:20;;;;;;;3.63;1.92;;;;;;;;;;5023763;28;20034;-66
2023/12/30 11:26:47;;;;;;;4.15;1.80;;;;;;;;;;5025235;28;20040;-68
2023/12/30 11:29:15;;;;;;;2.80;1.48;;;;;;;;;;5018506;28;20029;-66
2023/12/30 11:31:45;;;;;;;3.47;1.52;;;;;;;;;;5025176;28;20457;-66
2023/12/30 11:34:15;;;;;;;3.58;2.17;;;;;;;;;;5029192;28;20037;-65
2023/12/30 11:36:42;;;;;;;5.93;1.80;;;;;;;;;;5024644;28;20110;-66
2023/12/30 11:39:08;;;;;;;8.00;1.90;;;;;;;;;;5025388;28;20032;-66
2023/12/30 11:41:35;;;;;;;7.43;2.50;;;;;;;;;;5023421;28;20033;-66
2023/12/30 11:44:08;;;;;;;3.08;1.30;;;;;;;;;;4997874;28;20315;-63
2023/12/30 11:46:35;;;;;;;3.28;1.85;;;;;;;;;;5039272;28;20072;-68
2023/12/30 11:49:01;;;;;;;10.82;2.28;;;;;;;;;;5024997;28;20033;-63
2023/12/30 11:51:28;;;;;;;5.50;1.75;;;;;;;;;;5024135;28;20045;-65
2023/12/30 11:53:55;;;;;;;6.03;1.83;;;;;;;;;;5025172;28;20393;-65
2023/12/30 11:56:25;;;;;;;7.32;1.80;;;;;;;;;;5022353;28;20092;-65
2023/12/30 11:58:52;;;;;;;3.42;1.73;;;;;;;;;;5023928;28;20045;-65
2023/12/30 12:01:19;;;;;;;5.22;2.53;;;;;;;;;;5023849;28;20079;-66
2023/12/30 12:03:45;;;;;;;4.43;2.05;;;;;;;;;;5021563;28;20034;-65
2023/12/30 12:06:12;;;;;;;11.93;2.50;;;;;;;;;;5022886;28;20588;-69
2023/12/30 12:08:41;;;;;;;9.80;2.20;;;;;;;;;;5021201;28;20468;-65
2023/12/30 12:11:07;;;;;;;4.65;2.28;;;;;;;;;;5028812;28;20516;-65
2023/12/30 12:13:34;;;;;;;5.95;1.90;;;;;;;;;;5020435;28;20141;-71
2023/12/30 12:16:01;;;;;;;5.00;2.28;;;;;;;;;;5023859;28;20021;-65
2023/12/30 12:18:27;;;;;;;10.30;2.05;;;;;;;;;;5015699;28;20132;-65
2023/12/30 12:20:54;;;;;;;10.68;2.83;;;;;;;;;;5020560;28;20088;-68
2023/12/30 12:23:23;;;;;;;5.82;2.17;;;;;;;;;;5020779;28;20021;-66
2023/12/30 12:25:50;;;;;;;5.03;1.92;;;;;;;;;;5021993;28;20141;-65
2023/12/30 12:28:17;;;;;;;11.48;2.55;;;;;;;;;;5013716;28;20191;-65
2023/12/30 12:30:44;;;;;;;8.00;2.90;;;;;;;;;;5018445;28;20378;-63
2023/12/30 12:33:11;;;;;;;2.80;1.63;;;;;;;;;;5015389;28;20512;-66
2023/12/30 12:35:41;;;;;;;2.42;2.00;;;;;;;;;;5019674;28;20035;-66
2023/12/30 12:38:08;;;;;;;9.45;2.20;;;;;;;;;;5016494;28;20140;-68
2023/12/30 12:40:34;;;;;;;8.63;2.08;;;;;;;;;;5018995;28;20061;-65
2023/12/30 12:43:00;;;;;;;5.70;2.75;;;;;;;;;;5017645;28;20026;-66
2023/12/30 12:45:27;;;;;;;4.18;2.33;;;;;;;;;;5018497;28;20033;-65
2023/12/30 12:47:53;;;;;;;9.60;2.50;;;;;;;;;;5015132;28;21863;-65
2023/12/30 12:50:19;;;;;;;7.95;1.92;;;;;;;;;;5016540;28;20029;-65
2023/12/30 12:52:45;;;;;;;9.43;2.35;;;;;;;;;;5019044;28;20029;-65
2023/12/30 12:55:12;;;;;;;7.68;1.80;;;;;;;;;;5017307;28;20378;-65
2023/12/30 12:57:39;;;;;;;6.25;2.70;;;;;;;;;;5018172;28;20033;-65
2023/12/30 13:00:08;;;;;;;10.45;2.35;;;;;;;;;;5022136;28;20029;-65
2023/12/30 13:02:36;;;;;;;3.80;2.03;;;;;;;;;;5015884;28;20035;-65
2023/12/30 13:05:04;;;;;;;6.22;3.13;;;;;;;;;;5020598;28;20045;-65
2023/12/30 13:07:30;;;;;;;11.45;2.90;;;;;;;;;;5018693;28;20998;-65
2023/12/30 13:10:12;;;;;;;6.47;2.03;;;;;;;;;;5022203;28;20491;-65
2023/12/30 13:12:39;;;;;;;4.97;2.15;;;;;;;;;;5021265;28;20017;-65
2023/12/30 13:15:09;;;;;;;6.60;2.53;;;;;;;;;;5017899;28;20053;-65
2023/12/30 13:17:35;;;;;;;11.07;3.92;;;;;;;;;;5022936;28;20021;-65
2023/12/30 13:20:01;;;;;;;16.65;4.20;;;;;;;;;;5017172;28;20129;-65
2023/12/30 13:22:28;;;;;;;6.38;3.10;;;;;;;;;;5020831;28;20034;-65
2023/12/30 13:24:54;;;;;;;8.50;2.90;;;;;;;;;;5020898;28;20040;-65
2023/12/30 13:27:23;;;;;;;9.98;3.30;;;;;;;;;;5021410;28;20294;-65
2023/12/30 13:29:49;;;;;;;8.20;3.78;;;;;;;;;;5013106;28;20491;-66
2023/12/30 13:32:15;;;;;;;5.70;2.97;;;;;;;;;;5019782;28;20419;-65
2023/12/30 13:34:43;;;;;;;19.27;3.75;;;;;;;;;;5021341;28;20052;-65
2023/12/30 13:37:10;;;;;;;11.63;3.13;;;;;;;;;;5025169;28;20024;-65
2023/12/30 13:39:39;;;;;;;16.40;3.17;;;;;;;;;;5022440;28;20037;-65
2023/12/30 13:42:09;;;;;;;9.90;3.22;;;;;;;;;;5024388;28;20026;-65
2023/12/30 13:44:40;;;;;;;10.32;2.97;;;;;;;;;;5016496;28;20720;-65
2023/12/30 13:52:50;;;;;;;9.18;2.78;;;;;;;;;;5014540;28;20036;-65
2023/12/30 13:55:18;;;;;;;14.55;5.13;;;;;;;;;;5018035;28;20030;-65
2023/12/30 13:57:50;;;;;;;13.70;3.70;;;;;;;;;;5002565;28;20042;-65
2023/12/30 14:00:18;;;;;;;14.48;3.67;;;;;;;;;;5023040;28;20027;-65
2023/12/30 14:02:45;;;;;;;13.05;3.17;;;;;;;;;;5017094;28;20034;-64
2023/12/30 14:05:18;;;;;;;14.20;4.10;;;;;;;;;;5019846;28;20389;-65
2023/12/30 14:07:50;;;;;;;14.55;3.25;;;;;;;;;;5020486;28;20030;-65
2023/12/30 14:10:18;;;;;;;12.75;3.97;;;;;;;;;;5008691;28;20544;-65
2023/12/30 14:12:44;;;;;;;24.35;4.70;;;;;;;;;;5013300;28;20033;-65
2023/12/30 14:15:15;;;;;;;8.55;3.90;;;;;;;;;;5021809;28;20033;-65
2023/12/30 14:17:42;;;;;;;18.65;4.03;;;;;;;;;;5022587;28;20489;-65
2023/12/30 14:20:10;;;;;;;8.40;4.15;;;;;;;;;;5022072;28;20029;-68
2023/12/30 14:22:37;;;;;;;22.50;3.53;;;;;;;;;;5020897;28;20021;-65
2023/12/30 14:25:11;;;;;;;11.38;2.67;;;;;;;;;;5018832;28;20036;-65
2023/12/30 14:27:37;;;;;;;13.68;4.65;;;;;;;;;;5010500;28;20089;-65
2023/12/30 14:30:05;;;;;;;18.38;3.88;;;;;;;;;;5020478;28;20022;-64
2023/12/30 14:32:32;;;;;;;4.40;3.00;;;;;;;;;;5015777;28;20026;-65
2023/12/30 14:34:59;;;;;;;15.55;3.30;;;;;;;;;;5017111;28;20018;-65
2023/12/30 14:37:25;;;;;;;12.80;4.10;;;;;;;;;;5018393;28;20617;-65
2023/12/30 14:39:52;;;;;;;10.23;3.33;;;;;;;;;;5024176;28;20505;-67
2023/12/30 14:42:20;;;;;;;7.88;2.58;;;;;;;;;;5014583;28;20022;-65
2023/12/30 14:44:47;;;;;;;12.18;3.63;;;;;;;;;;5019209;28;20037;-65
2023/12/30 14:47:13;;;;;;;10.38;3.78;;;;;;;;;;5009022;28;20021;-65
2023/12/30 14:49:41;;;;;;;17.92;4.63;;;;;;;;;;5011029;28;20115;-65